createdAt,value
2018-12-06T00:02:26.694Z,0
2018-12-06T00:12:41.287Z,0
2018-12-06T00:22:54.972Z,0
2018-12-06T00:33:08.784Z,0
2018-12-06T00:43:23.826Z,0
2018-12-06T00:53:37.836Z,0
2018-12-06T01:03:53.087Z,0
2018-12-06T01:14:08.667Z,0
2018-12-06T01:24:23.563Z,0
2018-12-06T01:34:37.298Z,0
2018-12-06T01:44:51.191Z,0
2018-12-06T01:55:04.915Z,0
2018-12-06T02:05:18.964Z,0
2018-12-06T02:15:33.585Z,0
2018-12-06T02:25:47.388Z,0
2018-12-06T02:36:01.103Z,0
2018-12-06T02:46:15.293Z,0
2018-12-06T02:56:29.777Z,0
2018-12-06T03:06:45.128Z,0
2018-12-06T03:16:59.992Z,0
2018-12-06T03:27:14.082Z,0
2018-12-06T03:37:28.682Z,0
2018-12-06T03:47:44.149Z,0
2018-12-06T03:57:58.528Z,0
2018-12-06T04:08:13.779Z,0
2018-12-06T04:18:29.114Z,0
2018-12-06T04:28:43.983Z,0
2018-12-06T04:38:58.598Z,0
2018-12-06T04:49:13.021Z,0
2018-12-06T04:59:26.998Z,0
2018-12-06T05:09:41.876Z,0
2018-12-06T05:19:57.252Z,0
2018-12-06T05:30:10.971Z,0
2018-12-06T05:40:24.917Z,0
2018-12-06T05:50:40.399Z,0
2018-12-06T06:00:54.881Z,0
2018-12-06T06:11:09.640Z,0
2018-12-06T06:21:24.918Z,0
2018-12-06T06:31:39.347Z,0
2018-12-06T06:41:53.131Z,0
2018-12-06T06:52:08.798Z,4
2018-12-06T07:02:23.721Z,12
2018-12-06T07:12:37.441Z,44
2018-12-06T07:22:51.660Z,64
2018-12-06T07:33:05.615Z,232
2018-12-06T07:43:19.726Z,564
2018-12-06T07:53:33.740Z,644
2018-12-06T08:03:47.476Z,552
2018-12-06T08:14:02.643Z,1052
2018-12-06T08:24:17.162Z,1236
2018-12-06T08:34:31.326Z,1524
2018-12-06T08:44:45.982Z,2076
2018-12-06T08:54:59.906Z,2088
2018-12-06T09:05:13.771Z,2360
2018-12-06T09:15:28.018Z,2288
2018-12-06T09:25:42.907Z,3224
2018-12-06T09:35:57.053Z,4384
2018-12-06T09:46:11.901Z,5688
2018-12-06T09:56:26.499Z,3468
2018-12-06T10:06:41.715Z,3060
2018-12-06T10:16:56.494Z,2668
2018-12-06T10:27:10.353Z,4076
2018-12-06T10:37:25.083Z,3860
2018-12-06T10:47:38.893Z,2256
2018-12-06T10:57:52.671Z,2528
2018-12-06T11:08:08.369Z,2424
2018-12-06T11:18:22.837Z,2684
2018-12-06T11:28:37.117Z,2900
2018-12-06T11:38:52.605Z,3604
2018-12-06T11:49:06.688Z,3532
2018-12-06T11:59:21.408Z,4736
2018-12-06T12:09:36.154Z,9412
2018-12-06T12:19:51.200Z,7904
2018-12-06T12:30:06.596Z,6028
2018-12-06T12:40:21.101Z,4796
2018-12-06T12:50:35.067Z,3312
2018-12-06T13:00:49.396Z,5888
2018-12-06T13:11:04.381Z,4740
2018-12-06T13:21:19.299Z,3292
2018-12-06T13:31:33.695Z,2612
2018-12-06T13:41:49.303Z,1324
2018-12-06T13:52:03.762Z,2316
2018-12-06T14:02:18.472Z,1616
2018-12-06T14:12:34.025Z,2140
2018-12-06T14:22:49.101Z,2096
2018-12-06T14:33:02.972Z,1504
2018-12-06T14:43:16.858Z,496
2018-12-06T14:53:31.115Z,332
2018-12-06T15:03:45.480Z,184
2018-12-06T15:14:00.125Z,112
2018-12-06T15:24:15.348Z,52
2018-12-06T15:34:29.605Z,16
2018-12-06T15:44:43.775Z,4
2018-12-06T15:54:57.491Z,0
2018-12-06T16:05:12.402Z,0
2018-12-06T16:15:27.577Z,0
2018-12-06T16:25:43.292Z,0
2018-12-06T16:35:58.343Z,0
2018-12-06T16:46:12.559Z,0
2018-12-06T16:56:27.097Z,0
2018-12-06T17:06:42.638Z,0
2018-12-06T17:16:56.847Z,0
2018-12-06T17:27:11.344Z,0
2018-12-06T17:37:25.213Z,0
2018-12-06T17:47:39.745Z,0
2018-12-06T17:57:54.596Z,0
2018-12-06T18:08:09.909Z,0
2018-12-06T18:18:25.079Z,0
2018-12-06T18:28:40.747Z,0
2018-12-06T18:38:55.392Z,0
2018-12-06T18:49:10.480Z,0
2018-12-06T18:59:25.904Z,0
2018-12-06T19:09:40.676Z,0
2018-12-06T19:19:54.348Z,0
2018-12-06T19:30:08.252Z,0
2018-12-06T19:40:23.626Z,0
2018-12-06T19:50:38.956Z,0
2018-12-06T20:00:54.384Z,0
2018-12-06T20:11:08.800Z,0
2018-12-06T20:21:22.553Z,0
2018-12-06T20:31:38.056Z,0
2018-12-06T20:41:52.048Z,0
2018-12-06T20:52:06.005Z,0
2018-12-06T21:02:21.381Z,0
2018-12-06T21:12:35.015Z,0
2018-12-06T21:22:49.652Z,0
2018-12-06T21:33:04.949Z,0
2018-12-06T21:43:19.658Z,0
2018-12-06T21:53:34.623Z,0
2018-12-06T22:03:49.152Z,0
2018-12-06T22:14:03.036Z,0
2018-12-06T22:24:17.543Z,0
2018-12-06T22:34:31.540Z,0
2018-12-06T22:44:46.110Z,0
2018-12-06T22:55:01.061Z,0
2018-12-06T23:05:15.518Z,0
2018-12-06T23:15:30.682Z,0
2018-12-06T23:25:45.531Z,0
2018-12-06T23:36:00.070Z,0
2018-12-06T23:46:14.979Z,0
2018-12-06T23:56:29.809Z,0
